sensor_id;sensor_type;location;lat;lon;timestamp;P1;durP1;ratioP1;P2;durP2;ratioP2
9938;SDS011;5008;50.656;7.188;2022-12-26T00:01:49;2.37;;;2.00;;
9938;SDS011;5008;50.656;7.188;2022-12-26T00:04:18;2.07;;;1.87;;
9938;SDS011;5008;50.656;7.188;2022-12-26T00:06:45;2.23;;;2.03;;
9938;SDS011;5008;50.656;7.188;2022-12-26T00:09:12;3.00;;;2.10;;
9938;SDS011;5008;50.656;7.188;2022-12-26T00:11:39;2.10;;;1.83;;
9938;SDS011;5008;50.656;7.188;2022-12-26T00:14:08;2.20;;;2.00;;
9938;SDS011;5008;50.656;7.188;2022-12-26T00:16:36;2.60;;;2.03;;
9938;SDS011;5008;50.656;7.188;2022-12-26T00:19:04;2.43;;;2.23;;
9938;SDS011;5008;50.656;7.188;2022-12-26T00:21:31;2.43;;;2.23;;
9938;SDS011;5008;50.656;7.188;2022-12-26T00:23:59;2.60;;;2.33;;
9938;SDS011;5008;50.656;7.188;2022-12-26T00:26:28;3.50;;;2.40;;
9938;SDS011;5008;50.656;7.188;2022-12-26T00:28:57;3.40;;;2.07;;
9938;SDS011;5008;50.656;7.188;2022-12-26T00:31:26;2.50;;;2.30;;
9938;SDS011;5008;50.656;7.188;2022-12-26T00:33:54;2.53;;;1.90;;
9938;SDS011;5008;50.656;7.188;2022-12-26T00:36:22;3.20;;;2.20;;
9938;SDS011;5008;50.656;7.188;2022-12-26T00:38:58;2.47;;;2.27;;
9938;SDS011;5008;50.656;7.188;2022-12-26T00:41:27;2.83;;;2.27;;
9938;SDS011;5008;50.656;7.188;2022-12-26T00:43:54;3.90;;;2.40;;
9938;SDS011;5008;50.656;7.188;2022-12-26T00:46:22;3.10;;;2.43;;
9938;SDS011;5008;50.656;7.188;2022-12-26T00:48:50;2.60;;;2.40;;
9938;SDS011;5008;50.656;7.188;2022-12-26T00:51:17;3.60;;;2.30;;
9938;SDS011;5008;50.656;7.188;2022-12-26T00:53:44;2.73;;;2.00;;
9938;SDS011;5008;50.656;7.188;2022-12-26T00:56:14;4.43;;;2.30;;
9938;SDS011;5008;50.656;7.188;2022-12-26T00:58:41;2.30;;;2.00;;
9938;SDS011;5008;50.656;7.188;2022-12-26T01:01:09;4.70;;;2.30;;
9938;SDS011;5008;50.656;7.188;2022-12-26T01:03:41;2.73;;;1.63;;
9938;SDS011;5008;50.656;7.188;2022-12-26T01:06:10;3.30;;;2.00;;
9938;SDS011;5008;50.656;7.188;2022-12-26T01:08:43;2.87;;;2.00;;
9938;SDS011;5008;50.656;7.188;2022-12-26T01:11:11;3.53;;;2.10;;
9938;SDS011;5008;50.656;7.188;2022-12-26T01:13:40;3.73;;;2.40;;
9938;SDS011;5008;50.656;7.188;2022-12-26T01:16:07;3.17;;;2.30;;
9938;SDS011;5008;50.656;7.188;2022-12-26T01:18:34;5.57;;;2.67;;
9938;SDS011;5008;50.656;7.188;2022-12-26T01:21:03;2.80;;;2.17;;
9938;SDS011;5008;50.656;7.188;2022-12-26T01:23:32;2.43;;;2.20;;
9938;SDS011;5008;50.656;7.188;2022-12-26T01:25:59;2.53;;;1.80;;
9938;SDS011;5008;50.656;7.188;2022-12-26T01:28:27;2.70;;;2.00;;
9938;SDS011;5008;50.656;7.188;2022-12-26T01:30:54;3.07;;;2.13;;
9938;SDS011;5008;50.656;7.188;2022-12-26T01:33:21;2.27;;;1.90;;
9938;SDS011;5008;50.656;7.188;2022-12-26T01:35:50;2.37;;;2.17;;
9938;SDS011;5008;50.656;7.188;2022-12-26T01:38:18;2.37;;;1.70;;
9938;SDS011;5008;50.656;7.188;2022-12-26T01:40:47;3.83;;;2.00;;
9938;SDS011;5008;50.656;7.188;2022-12-26T01:43:45;4.17;;;2.33;;
9938;SDS011;5008;50.656;7.188;2022-12-26T01:46:30;2.13;;;1.90;;
9938;SDS011;5008;50.656;7.188;2022-12-26T01:49:05;2.57;;;2.10;;
9938;SDS011;5008;50.656;7.188;2022-12-26T01:51:35;2.33;;;1.83;;
9938;SDS011;5008;50.656;7.188;2022-12-26T01:54:04;2.37;;;2.17;;
9938;SDS011;5008;50.656;7.188;2022-12-26T01:56:37;3.10;;;2.10;;
9938;SDS011;5008;50.656;7.188;2022-12-26T01:59:06;3.63;;;2.10;;
9938;SDS011;5008;50.656;7.188;2022-12-26T02:01:37;3.40;;;2.30;;
9938;SDS011;5008;50.656;7.188;2022-12-26T02:04:07;2.27;;;2.07;;
9938;SDS011;5008;50.656;7.188;2022-12-26T02:06:55;2.67;;;2.40;;
9938;SDS011;5008;50.656;7.188;2022-12-26T02:09:22;2.27;;;1.90;;
9938;SDS011;5008;50.656;7.188;2022-12-26T02:11:52;2.40;;;2.13;;
9938;SDS011;5008;50.656;7.188;2022-12-26T02:14:24;2.07;;;1.87;;
9938;SDS011;5008;50.656;7.188;2022-12-26T02:16:51;2.00;;;1.80;;
9938;SDS011;5008;50.656;7.188;2022-12-26T02:19:22;2.17;;;1.83;;
9938;SDS011;5008;50.656;7.188;2022-12-26T02:22:10;2.90;;;2.10;;
9938;SDS011;5008;50.656;7.188;2022-12-26T02:25:04;2.43;;;1.93;;
9938;SDS011;5008;50.656;7.188;2022-12-26T02:30:54;4.30;;;2.20;;
9938;SDS011;5008;50.656;7.188;2022-12-26T02:33:28;4.67;;;2.00;;
9938;SDS011;5008;50.656;7.188;2022-12-26T02:36:16;2.37;;;1.93;;
9938;SDS011;5008;50.656;7.188;2022-12-26T02:38:52;2.03;;;1.87;;
9938;SDS011;5008;50.656;7.188;2022-12-26T02:41:29;2.77;;;2.40;;
9938;SDS011;5008;50.656;7.188;2022-12-26T02:44:06;2.73;;;2.40;;
9938;SDS011;5008;50.656;7.188;2022-12-26T02:47:01;2.50;;;2.00;;
9938;SDS011;5008;50.656;7.188;2022-12-26T02:49:40;3.27;;;2.30;;
9938;SDS011;5008;50.656;7.188;2022-12-26T02:52:49;3.00;;;2.30;;
9938;SDS011;5008;50.656;7.188;2022-12-26T02:55:43;3.43;;;2.00;;
9938;SDS011;5008;50.656;7.188;2022-12-26T02:58:29;3.00;;;2.17;;
9938;SDS011;5008;50.656;7.188;2022-12-26T03:01:21;2.43;;;1.97;;
9938;SDS011;5008;50.656;7.188;2022-12-26T03:04:11;3.10;;;2.20;;
9938;SDS011;5008;50.656;7.188;2022-12-26T03:06:57;3.83;;;2.13;;
9938;SDS011;5008;50.656;7.188;2022-12-26T03:09:45;2.47;;;1.90;;
9938;SDS011;5008;50.656;7.188;2022-12-26T03:12:33;3.33;;;2.50;;
9938;SDS011;5008;50.656;7.188;2022-12-26T03:15:22;3.23;;;2.53;;
9938;SDS011;5008;50.656;7.188;2022-12-26T03:17:52;2.77;;;2.00;;
9938;SDS011;5008;50.656;7.188;2022-12-26T03:20:22;2.53;;;2.00;;
9938;SDS011;5008;50.656;7.188;2022-12-26T03:22:52;2.93;;;1.90;;
9938;SDS011;5008;50.656;7.188;2022-12-26T03:25:24;2.00;;;1.70;;
9938;SDS011;5008;50.656;7.188;2022-12-26T03:28:15;3.03;;;1.73;;
9938;SDS011;5008;50.656;7.188;2022-12-26T03:30:42;2.07;;;1.80;;
9938;SDS011;5008;50.656;7.188;2022-12-26T03:33:13;2.60;;;2.00;;
9938;SDS011;5008;50.656;7.188;2022-12-26T03:36:04;3.13;;;1.90;;
9938;SDS011;5008;50.656;7.188;2022-12-26T03:38:33;2.53;;;1.70;;
9938;SDS011;5008;50.656;7.188;2022-12-26T03:41:20;1.93;;;1.70;;
9938;SDS011;5008;50.656;7.188;2022-12-26T03:44:15;1.80;;;1.70;;
9938;SDS011;5008;50.656;7.188;2022-12-26T03:47:12;1.93;;;1.70;;
9938;SDS011;5008;50.656;7.188;2022-12-26T03:50:06;2.73;;;1.53;;
9938;SDS011;5008;50.656;7.188;2022-12-26T03:52:58;1.90;;;1.43;;
9938;SDS011;5008;50.656;7.188;2022-12-26T03:55:49;3.67;;;1.87;;
9938;SDS011;5008;50.656;7.188;2022-12-26T03:58:39;2.23;;;1.60;;
9938;SDS011;5008;50.656;7.188;2022-12-26T04:01:30;2.03;;;1.83;;
9938;SDS011;5008;50.656;7.188;2022-12-26T04:04:17;2.03;;;1.70;;
9938;SDS011;5008;50.656;7.188;2022-12-26T04:07:06;1.80;;;1.60;;
9938;SDS011;5008;50.656;7.188;2022-12-26T04:09:56;2.93;;;1.90;;
9938;SDS011;5008;50.656;7.188;2022-12-26T04:12:44;2.10;;;1.70;;
9938;SDS011;5008;50.656;7.188;2022-12-26T04:15:32;2.13;;;1.53;;
9938;SDS011;5008;50.656;7.188;2022-12-26T04:18:25;3.13;;;2.00;;
9938;SDS011;5008;50.656;7.188;2022-12-26T04:21:17;1.90;;;1.70;;
9938;SDS011;5008;50.656;7.188;2022-12-26T04:24:08;2.47;;;1.93;;
9938;SDS011;5008;50.656;7.188;2022-12-26T04:26:57;1.73;;;1.63;;
9938;SDS011;5008;50.656;7.188;2022-12-26T04:29:46;2.00;;;1.77;;
9938;SDS011;5008;50.656;7.188;2022-12-26T04:32:33;3.17;;;1.70;;
9938;SDS011;5008;50.656;7.188;2022-12-26T04:35:23;2.57;;;2.10;;
9938;SDS011;5008;50.656;7.188;2022-12-26T04:38:12;2.43;;;1.60;;
9938;SDS011;5008;50.656;7.188;2022-12-26T04:41:02;1.80;;;1.70;;
9938;SDS011;5008;50.656;7.188;2022-12-26T04:43:49;1.90;;;1.60;;
9938;SDS011;5008;50.656;7.188;2022-12-26T04:46:34;2.27;;;1.83;;
9938;SDS011;5008;50.656;7.188;2022-12-26T04:49:04;2.10;;;1.90;;
9938;SDS011;5008;50.656;7.188;2022-12-26T04:51:58;2.07;;;1.80;;
9938;SDS011;5008;50.656;7.188;2022-12-26T04:54:28;2.13;;;1.80;;
9938;SDS011;5008;50.656;7.188;2022-12-26T04:56:55;2.40;;;1.70;;
9938;SDS011;5008;50.656;7.188;2022-12-26T04:59:32;1.40;;;1.30;;
9938;SDS011;5008;50.656;7.188;2022-12-26T05:01:59;2.23;;;1.80;;
9938;SDS011;5008;50.656;7.188;2022-12-26T05:04:44;1.43;;;1.33;;
9938;SDS011;5008;50.656;7.188;2022-12-26T05:07:28;2.20;;;1.60;;
9938;SDS011;5008;50.656;7.188;2022-12-26T05:10:16;2.03;;;1.43;;
9938;SDS011;5008;50.656;7.188;2022-12-26T05:12:44;2.40;;;1.70;;
9938;SDS011;5008;50.656;7.188;2022-12-26T05:15:12;1.83;;;1.70;;
9938;SDS011;5008;50.656;7.188;2022-12-26T05:17:40;1.83;;;1.50;;
9938;SDS011;5008;50.656;7.188;2022-12-26T05:20:25;2.00;;;1.80;;
9938;SDS011;5008;50.656;7.188;2022-12-26T05:23:12;1.67;;;1.57;;
9938;SDS011;5008;50.656;7.188;2022-12-26T05:26:00;2.20;;;1.70;;
9938;SDS011;5008;50.656;7.188;2022-12-26T05:28:45;2.43;;;1.70;;
9938;SDS011;5008;50.656;7.188;2022-12-26T05:31:19;4.47;;;2.03;;
9938;SDS011;5008;50.656;7.188;2022-12-26T05:33:46;3.00;;;2.10;;
9938;SDS011;5008;50.656;7.188;2022-12-26T05:36:30;2.23;;;1.90;;
9938;SDS011;5008;50.656;7.188;2022-12-26T05:39:01;2.20;;;1.90;;
9938;SDS011;5008;50.656;7.188;2022-12-26T05:41:28;1.93;;;1.73;;
9938;SDS011;5008;50.656;7.188;2022-12-26T05:43:55;5.13;;;2.00;;
9938;SDS011;5008;50.656;7.188;2022-12-26T05:46:23;4.00;;;1.87;;
9938;SDS011;5008;50.656;7.188;2022-12-26T05:48:50;2.20;;;2.00;;
9938;SDS011;5008;50.656;7.188;2022-12-26T05:51:16;3.40;;;2.00;;
9938;SDS011;5008;50.656;7.188;2022-12-26T05:53:43;3.70;;;1.90;;
9938;SDS011;5008;50.656;7.188;2022-12-26T05:56:11;2.37;;;1.73;;
9938;SDS011;5008;50.656;7.188;2022-12-26T05:58:38;2.03;;;1.80;;
9938;SDS011;5008;50.656;7.188;2022-12-26T06:01:06;3.27;;;1.60;;
9938;SDS011;5008;50.656;7.188;2022-12-26T06:03:36;3.60;;;1.80;;
9938;SDS011;5008;50.656;7.188;2022-12-26T06:06:05;2.63;;;1.97;;
9938;SDS011;5008;50.656;7.188;2022-12-26T06:08:32;3.70;;;1.53;;
9938;SDS011;5008;50.656;7.188;2022-12-26T06:11:01;1.77;;;1.63;;
9938;SDS011;5008;50.656;7.188;2022-12-26T06:13:30;2.03;;;1.50;;
9938;SDS011;5008;50.656;7.188;2022-12-26T06:15:56;1.80;;;1.67;;
9938;SDS011;5008;50.656;7.188;2022-12-26T06:18:23;1.93;;;1.60;;
9938;SDS011;5008;50.656;7.188;2022-12-26T06:20:52;2.10;;;1.87;;
9938;SDS011;5008;50.656;7.188;2022-12-26T06:23:18;2.33;;;1.80;;
9938;SDS011;5008;50.656;7.188;2022-12-26T06:25:51;3.00;;;1.80;;
9938;SDS011;5008;50.656;7.188;2022-12-26T06:28:19;3.37;;;2.03;;
9938;SDS011;5008;50.656;7.188;2022-12-26T06:30:45;3.37;;;2.10;;
9938;SDS011;5008;50.656;7.188;2022-12-26T06:33:12;1.97;;;1.77;;
9938;SDS011;5008;50.656;7.188;2022-12-26T06:35:39;1.90;;;1.80;;
9938;SDS011;5008;50.656;7.188;2022-12-26T06:38:07;2.03;;;1.83;;
9938;SDS011;5008;50.656;7.188;2022-12-26T06:40:36;3.03;;;2.10;;
9938;SDS011;5008;50.656;7.188;2022-12-26T06:43:03;2.60;;;2.30;;
9938;SDS011;5008;50.656;7.188;2022-12-26T06:45:30;2.43;;;1.90;;
9938;SDS011;5008;50.656;7.188;2022-12-26T06:47:57;2.13;;;2.00;;
9938;SDS011;5008;50.656;7.188;2022-12-26T06:50:24;2.10;;;1.90;;
9938;SDS011;5008;50.656;7.188;2022-12-26T06:52:51;2.57;;;2.23;;
9938;SDS011;5008;50.656;7.188;2022-12-26T06:55:19;2.60;;;2.13;;
9938;SDS011;5008;50.656;7.188;2022-12-26T06:57:46;3.03;;;2.00;;
9938;SDS011;5008;50.656;7.188;2022-12-26T07:00:13;2.20;;;2.00;;
9938;SDS011;5008;50.656;7.188;2022-12-26T07:02:40;3.03;;;2.00;;
9938;SDS011;5008;50.656;7.188;2022-12-26T07:05:07;1.97;;;1.73;;
9938;SDS011;5008;50.656;7.188;2022-12-26T07:07:34;4.03;;;2.40;;
9938;SDS011;5008;50.656;7.188;2022-12-26T07:13:00;1.90;;;1.80;;
9938;SDS011;5008;50.656;7.188;2022-12-26T07:15:26;2.10;;;1.87;;
9938;SDS011;5008;50.656;7.188;2022-12-26T07:17:53;3.93;;;2.00;;
9938;SDS011;5008;50.656;7.188;2022-12-26T07:20:21;3.30;;;2.07;;
9938;SDS011;5008;50.656;7.188;2022-12-26T07:22:47;2.97;;;2.10;;
9938;SDS011;5008;50.656;7.188;2022-12-26T07:25:16;2.53;;;2.13;;
9938;SDS011;5008;50.656;7.188;2022-12-26T07:27:43;2.93;;;2.23;;
9938;SDS011;5008;50.656;7.188;2022-12-26T07:30:11;4.00;;;3.70;;
9938;SDS011;5008;50.656;7.188;2022-12-26T07:32:39;5.77;;;4.90;;
9938;SDS011;5008;50.656;7.188;2022-12-26T07:35:12;5.47;;;4.97;;
9938;SDS011;5008;50.656;7.188;2022-12-26T07:37:39;3.57;;;3.27;;
9938;SDS011;5008;50.656;7.188;2022-12-26T07:40:06;3.20;;;2.90;;
9938;SDS011;5008;50.656;7.188;2022-12-26T07:42:34;3.07;;;2.60;;
9938;SDS011;5008;50.656;7.188;2022-12-26T07:45:01;3.73;;;2.37;;
9938;SDS011;5008;50.656;7.188;2022-12-26T07:47:29;3.43;;;2.47;;
9938;SDS011;5008;50.656;7.188;2022-12-26T07:49:56;2.50;;;2.30;;
9938;SDS011;5008;50.656;7.188;2022-12-26T07:55:05;3.60;;;2.40;;
9938;SDS011;5008;50.656;7.188;2022-12-26T07:57:32;3.30;;;2.13;;
9938;SDS011;5008;50.656;7.188;2022-12-26T07:59:59;2.70;;;1.90;;
9938;SDS011;5008;50.656;7.188;2022-12-26T08:02:26;2.20;;;2.00;;
9938;SDS011;5008;50.656;7.188;2022-12-26T08:04:54;2.77;;;2.57;;
9938;SDS011;5008;50.656;7.188;2022-12-26T08:07:20;2.53;;;2.20;;
9938;SDS011;5008;50.656;7.188;2022-12-26T08:09:48;2.33;;;2.13;;
9938;SDS011;5008;50.656;7.188;2022-12-26T08:12:16;2.00;;;1.90;;
9938;SDS011;5008;50.656;7.188;2022-12-26T08:14:45;2.37;;;2.17;;
9938;SDS011;5008;50.656;7.188;2022-12-26T08:17:12;2.70;;;2.33;;
9938;SDS011;5008;50.656;7.188;2022-12-26T08:19:39;3.40;;;2.80;;
9938;SDS011;5008;50.656;7.188;2022-12-26T08:22:07;2.37;;;2.17;;
9938;SDS011;5008;50.656;7.188;2022-12-26T08:24:34;2.53;;;2.07;;
9938;SDS011;5008;50.656;7.188;2022-12-26T08:27:02;2.27;;;1.90;;
9938;SDS011;5008;50.656;7.188;2022-12-26T08:29:29;1.63;;;1.53;;
9938;SDS011;5008;50.656;7.188;2022-12-26T08:31:56;1.90;;;1.80;;
9938;SDS011;5008;50.656;7.188;2022-12-26T08:34:23;2.57;;;1.90;;
9938;SDS011;5008;50.656;7.188;2022-12-26T08:36:50;1.83;;;1.63;;
9938;SDS011;5008;50.656;7.188;2022-12-26T08:39:18;1.43;;;1.33;;
9938;SDS011;5008;50.656;7.188;2022-12-26T08:41:45;2.20;;;1.60;;
9938;SDS011;5008;50.656;7.188;2022-12-26T08:44:12;1.60;;;1.50;;
9938;SDS011;5008;50.656;7.188;2022-12-26T08:46:41;1.57;;;1.40;;
9938;SDS011;5008;50.656;7.188;2022-12-26T08:49:08;1.10;;;1.00;;
9938;SDS011;5008;50.656;7.188;2022-12-26T08:51:35;1.03;;;1.03;;
9938;SDS011;5008;50.656;7.188;2022-12-26T08:54:02;1.23;;;1.13;;
9938;SDS011;5008;50.656;7.188;2022-12-26T08:56:31;3.33;;;1.30;;
9938;SDS011;5008;50.656;7.188;2022-12-26T08:58:58;1.33;;;1.10;;
9938;SDS011;5008;50.656;7.188;2022-12-26T09:01:25;1.23;;;1.13;;
9938;SDS011;5008;50.656;7.188;2022-12-26T09:03:54;1.13;;;1.00;;
9938;SDS011;5008;50.656;7.188;2022-12-26T09:06:22;2.80;;;1.60;;
9938;SDS011;5008;50.656;7.188;2022-12-26T09:08:49;1.40;;;1.30;;
9938;SDS011;5008;50.656;7.188;2022-12-26T09:11:17;1.63;;;1.53;;
9938;SDS011;5008;50.656;7.188;2022-12-26T09:13:48;1.80;;;1.40;;
9938;SDS011;5008;50.656;7.188;2022-12-26T09:18:47;1.83;;;1.60;;
9938;SDS011;5008;50.656;7.188;2022-12-26T09:21:18;5.27;;;1.33;;
9938;SDS011;5008;50.656;7.188;2022-12-26T09:23:44;2.00;;;1.10;;
9938;SDS011;5008;50.656;7.188;2022-12-26T09:26:12;1.20;;;1.10;;
9938;SDS011;5008;50.656;7.188;2022-12-26T09:28:40;2.83;;;1.70;;
9938;SDS011;5008;50.656;7.188;2022-12-26T09:31:11;1.50;;;1.40;;
9938;SDS011;5008;50.656;7.188;2022-12-26T09:33:39;1.57;;;1.40;;
9938;SDS011;5008;50.656;7.188;2022-12-26T09:36:07;1.60;;;1.43;;
9938;SDS011;5008;50.656;7.188;2022-12-26T09:38:37;1.50;;;1.40;;
9938;SDS011;5008;50.656;7.188;2022-12-26T09:41:09;1.40;;;1.30;;
9938;SDS011;5008;50.656;7.188;2022-12-26T09:43:47;1.57;;;1.07;;
9938;SDS011;5008;50.656;7.188;2022-12-26T09:46:23;1.70;;;1.40;;
9938;SDS011;5008;50.656;7.188;2022-12-26T09:48:57;1.50;;;1.40;;
9938;SDS011;5008;50.656;7.188;2022-12-26T09:51:28;1.83;;;1.40;;
9938;SDS011;5008;50.656;7.188;2022-12-26T09:53:56;2.70;;;1.77;;
9938;SDS011;5008;50.656;7.188;2022-12-26T09:56:25;2.03;;;1.80;;
9938;SDS011;5008;50.656;7.188;2022-12-26T09:58:53;1.70;;;1.60;;
9938;SDS011;5008;50.656;7.188;2022-12-26T10:01:32;2.77;;;1.80;;
9938;SDS011;5008;50.656;7.188;2022-12-26T10:04:03;1.90;;;1.77;;
9938;SDS011;5008;50.656;7.188;2022-12-26T10:06:35;2.50;;;2.30;;
9938;SDS011;5008;50.656;7.188;2022-12-26T10:09:06;3.23;;;1.93;;
9938;SDS011;5008;50.656;7.188;2022-12-26T10:11:50;2.47;;;1.90;;
9938;SDS011;5008;50.656;7.188;2022-12-26T10:14:27;2.20;;;1.57;;
9938;SDS011;5008;50.656;7.188;2022-12-26T10:17:01;1.50;;;1.40;;
9938;SDS011;5008;50.656;7.188;2022-12-26T10:19:42;1.67;;;1.27;;
9938;SDS011;5008;50.656;7.188;2022-12-26T10:22:24;1.20;;;1.10;;
9938;SDS011;5008;50.656;7.188;2022-12-26T10:24:59;1.60;;;0.80;;
9938;SDS011;5008;50.656;7.188;2022-12-26T10:27:28;2.37;;;1.20;;
9938;SDS011;5008;50.656;7.188;2022-12-26T10:30:03;3.27;;;2.97;;
9938;SDS011;5008;50.656;7.188;2022-12-26T10:32:35;1.90;;;1.70;;
9938;SDS011;5008;50.656;7.188;2022-12-26T10:35:10;1.77;;;1.50;;
9938;SDS011;5008;50.656;7.188;2022-12-26T10:37:45;1.13;;;0.90;;
9938;SDS011;5008;50.656;7.188;2022-12-26T10:40:16;0.93;;;0.90;;
9938;SDS011;5008;50.656;7.188;2022-12-26T10:42:46;1.07;;;0.90;;
9938;SDS011;5008;50.656;7.188;2022-12-26T10:45:19;4.97;;;1.40;;
9938;SDS011;5008;50.656;7.188;2022-12-26T10:47:53;1.30;;;1.00;;
9938;SDS011;5008;50.656;7.188;2022-12-26T10:50:22;0.90;;;0.87;;
9938;SDS011;5008;50.656;7.188;2022-12-26T10:52:51;2.03;;;0.80;;
9938;SDS011;5008;50.656;7.188;2022-12-26T10:55:19;2.77;;;0.90;;
9938;SDS011;5008;50.656;7.188;2022-12-26T10:57:52;2.33;;;0.83;;
9938;SDS011;5008;50.656;7.188;2022-12-26T11:00:21;1.23;;;0.77;;
9938;SDS011;5008;50.656;7.188;2022-12-26T11:03:04;3.17;;;0.63;;
9938;SDS011;5008;50.656;7.188;2022-12-26T11:05:32;1.80;;;1.10;;
9938;SDS011;5008;50.656;7.188;2022-12-26T11:08:05;1.20;;;0.63;;
9938;SDS011;5008;50.656;7.188;2022-12-26T11:10:34;1.17;;;1.00;;
9938;SDS011;5008;50.656;7.188;2022-12-26T11:13:03;0.87;;;0.80;;
9938;SDS011;5008;50.656;7.188;2022-12-26T11:15:34;2.50;;;0.80;;
9938;SDS011;5008;50.656;7.188;2022-12-26T11:18:07;2.00;;;0.70;;
9938;SDS011;5008;50.656;7.188;2022-12-26T11:20:42;1.00;;;0.90;;
9938;SDS011;5008;50.656;7.188;2022-12-26T11:23:19;0.97;;;0.90;;
9938;SDS011;5008;50.656;7.188;2022-12-26T11:25:56;2.27;;;1.60;;
9938;SDS011;5008;50.656;7.188;2022-12-26T11:28:31;2.63;;;1.30;;
9938;SDS011;5008;50.656;7.188;2022-12-26T11:30:59;0.63;;;0.63;;
9938;SDS011;5008;50.656;7.188;2022-12-26T11:33:31;2.13;;;0.90;;
9938;SDS011;5008;50.656;7.188;2022-12-26T11:36:07;2.83;;;0.70;;
9938;SDS011;5008;50.656;7.188;2022-12-26T11:38:43;3.23;;;0.90;;
9938;SDS011;5008;50.656;7.188;2022-12-26T11:41:15;1.67;;;0.80;;
9938;SDS011;5008;50.656;7.188;2022-12-26T11:43:57;1.27;;;0.60;;
9938;SDS011;5008;50.656;7.188;2022-12-26T11:46:31;2.20;;;0.50;;
9938;SDS011;5008;50.656;7.188;2022-12-26T11:49:03;0.90;;;0.50;;
9938;SDS011;5008;50.656;7.188;2022-12-26T11:51:35;1.37;;;0.80;;
9938;SDS011;5008;50.656;7.188;2022-12-26T11:56:58;2.07;;;1.10;;
9938;SDS011;5008;50.656;7.188;2022-12-26T11:59:41;1.83;;;0.80;;
9938;SDS011;5008;50.656;7.188;2022-12-26T12:02:14;3.30;;;0.70;;
9938;SDS011;5008;50.656;7.188;2022-12-26T12:04:49;1.23;;;1.07;;
9938;SDS011;5008;50.656;7.188;2022-12-26T12:13:13;0.80;;;0.80;;
9938;SDS011;5008;50.656;7.188;2022-12-26T12:15:58;1.53;;;0.70;;
9938;SDS011;5008;50.656;7.188;2022-12-26T12:18:31;0.50;;;0.50;;
9938;SDS011;5008;50.656;7.188;2022-12-26T12:21:09;1.83;;;0.77;;
9938;SDS011;5008;50.656;7.188;2022-12-26T12:23:47;0.60;;;0.60;;
9938;SDS011;5008;50.656;7.188;2022-12-26T12:26:25;1.60;;;0.70;;
9938;SDS011;5008;50.656;7.188;2022-12-26T12:29:12;2.10;;;0.70;;
9938;SDS011;5008;50.656;7.188;2022-12-26T12:32:04;0.70;;;0.40;;
9938;SDS011;5008;50.656;7.188;2022-12-26T12:34:44;2.37;;;0.50;;
9938;SDS011;5008;50.656;7.188;2022-12-26T12:37:33;1.17;;;0.40;;
9938;SDS011;5008;50.656;7.188;2022-12-26T12:40:12;0.40;;;0.40;;
9938;SDS011;5008;50.656;7.188;2022-12-26T12:42:51;1.13;;;0.50;;
9938;SDS011;5008;50.656;7.188;2022-12-26T12:45:27;0.80;;;0.40;;
9938;SDS011;5008;50.656;7.188;2022-12-26T12:48:00;1.23;;;0.40;;
9938;SDS011;5008;50.656;7.188;2022-12-26T12:50:39;0.83;;;0.73;;
9938;SDS011;5008;50.656;7.188;2022-12-26T12:53:15;1.50;;;0.50;;
9938;SDS011;5008;50.656;7.188;2022-12-26T12:56:05;0.90;;;0.40;;
9938;SDS011;5008;50.656;7.188;2022-12-26T12:58:43;0.47;;;0.27;;
9938;SDS011;5008;50.656;7.188;2022-12-26T13:01:14;2.83;;;0.83;;
9938;SDS011;5008;50.656;7.188;2022-12-26T13:03:47;1.60;;;0.70;;
9938;SDS011;5008;50.656;7.188;2022-12-26T13:06:19;2.83;;;0.80;;
9938;SDS011;5008;50.656;7.188;2022-12-26T13:08:52;1.47;;;0.60;;
9938;SDS011;5008;50.656;7.188;2022-12-26T13:11:24;0.50;;;0.50;;
9938;SDS011;5008;50.656;7.188;2022-12-26T13:13:53;0.83;;;0.70;;
9938;SDS011;5008;50.656;7.188;2022-12-26T13:16:24;1.00;;;0.70;;
9938;SDS011;5008;50.656;7.188;2022-12-26T13:18:55;0.63;;;0.53;;
9938;SDS011;5008;50.656;7.188;2022-12-26T13:21:25;1.67;;;0.43;;
9938;SDS011;5008;50.656;7.188;2022-12-26T13:23:58;0.93;;;0.60;;
9938;SDS011;5008;50.656;7.188;2022-12-26T13:26:47;1.90;;;0.73;;
9938;SDS011;5008;50.656;7.188;2022-12-26T13:29:19;1.03;;;0.80;;
9938;SDS011;5008;50.656;7.188;2022-12-26T13:31:57;1.37;;;0.73;;
9938;SDS011;5008;50.656;7.188;2022-12-26T13:34:25;1.70;;;0.63;;
9938;SDS011;5008;50.656;7.188;2022-12-26T13:36:53;0.77;;;0.73;;
9938;SDS011;5008;50.656;7.188;2022-12-26T13:39:28;1.50;;;0.63;;
9938;SDS011;5008;50.656;7.188;2022-12-26T13:42:00;1.13;;;0.47;;
9938;SDS011;5008;50.656;7.188;2022-12-26T13:45:00;4.33;;;0.80;;
9938;SDS011;5008;50.656;7.188;2022-12-26T13:51:07;2.03;;;1.03;;
9938;SDS011;5008;50.656;7.188;2022-12-26T13:54:13;0.97;;;0.77;;
9938;SDS011;5008;50.656;7.188;2022-12-26T13:59:47;0.67;;;0.60;;
9938;SDS011;5008;50.656;7.188;2022-12-26T14:02:42;1.13;;;0.83;;
9938;SDS011;5008;50.656;7.188;2022-12-26T14:05:29;0.63;;;0.63;;
9938;SDS011;5008;50.656;7.188;2022-12-26T14:08:02;1.70;;;0.80;;
9938;SDS011;5008;50.656;7.188;2022-12-26T14:10:40;0.60;;;0.53;;
9938;SDS011;5008;50.656;7.188;2022-12-26T14:13:26;0.70;;;0.70;;
9938;SDS011;5008;50.656;7.188;2022-12-26T14:16:02;1.50;;;0.80;;
9938;SDS011;5008;50.656;7.188;2022-12-26T14:18:42;1.37;;;0.70;;
9938;SDS011;5008;50.656;7.188;2022-12-26T14:21:24;2.07;;;0.90;;
9938;SDS011;5008;50.656;7.188;2022-12-26T14:24:03;1.07;;;0.57;;
9938;SDS011;5008;50.656;7.188;2022-12-26T14:26:45;1.33;;;0.70;;
9938;SDS011;5008;50.656;7.188;2022-12-26T14:29:19;0.93;;;0.70;;
9938;SDS011;5008;50.656;7.188;2022-12-26T14:32:01;1.60;;;0.70;;
9938;SDS011;5008;50.656;7.188;2022-12-26T14:34:52;1.50;;;0.80;;
9938;SDS011;5008;50.656;7.188;2022-12-26T14:37:28;1.67;;;0.80;;
9938;SDS011;5008;50.656;7.188;2022-12-26T14:40:06;1.17;;;1.00;;
9938;SDS011;5008;50.656;7.188;2022-12-26T14:45:49;1.03;;;0.70;;
9938;SDS011;5008;50.656;7.188;2022-12-26T15:00:13;0.70;;;0.60;;
9938;SDS011;5008;50.656;7.188;2022-12-26T15:02:51;1.03;;;0.50;;
9938;SDS011;5008;50.656;7.188;2022-12-26T15:05:51;0.57;;;0.57;;
9938;SDS011;5008;50.656;7.188;2022-12-26T15:08:42;0.80;;;0.80;;
9938;SDS011;5008;50.656;7.188;2022-12-26T15:11:28;0.83;;;0.83;;
9938;SDS011;5008;50.656;7.188;2022-12-26T15:14:24;0.73;;;0.70;;
9938;SDS011;5008;50.656;7.188;2022-12-26T15:17:12;1.43;;;0.77;;
9938;SDS011;5008;50.656;7.188;2022-12-26T15:23:05;0.40;;;0.40;;
9938;SDS011;5008;50.656;7.188;2022-12-26T15:26:08;1.27;;;1.17;;
9938;SDS011;5008;50.656;7.188;2022-12-26T15:29:10;1.10;;;1.03;;
9938;SDS011;5008;50.656;7.188;2022-12-26T15:32:00;1.37;;;1.10;;
9938;SDS011;5008;50.656;7.188;2022-12-26T15:37:29;1.83;;;1.70;;
9938;SDS011;5008;50.656;7.188;2022-12-26T15:40:15;2.20;;;1.50;;
9938;SDS011;5008;50.656;7.188;2022-12-26T15:42:50;1.30;;;1.20;;
9938;SDS011;5008;50.656;7.188;2022-12-26T15:45:36;1.40;;;1.30;;
9938;SDS011;5008;50.656;7.188;2022-12-26T15:48:22;2.40;;;1.30;;
9938;SDS011;5008;50.656;7.188;2022-12-26T15:51:03;2.30;;;1.90;;
9938;SDS011;5008;50.656;7.188;2022-12-26T15:53:39;1.70;;;1.20;;
9938;SDS011;5008;50.656;7.188;2022-12-26T15:59:23;2.37;;;1.90;;
9938;SDS011;5008;50.656;7.188;2022-12-26T16:02:09;1.53;;;1.10;;
9938;SDS011;5008;50.656;7.188;2022-12-26T16:04:39;2.60;;;2.00;;
9938;SDS011;5008;50.656;7.188;2022-12-26T16:07:15;3.17;;;1.50;;
9938;SDS011;5008;50.656;7.188;2022-12-26T16:09:48;1.93;;;1.60;;
9938;SDS011;5008;50.656;7.188;2022-12-26T16:12:19;3.00;;;1.70;;
9938;SDS011;5008;50.656;7.188;2022-12-26T16:14:49;1.57;;;1.20;;
9938;SDS011;5008;50.656;7.188;2022-12-26T16:17:25;2.87;;;1.20;;
9938;SDS011;5008;50.656;7.188;2022-12-26T16:19:53;2.47;;;1.70;;
9938;SDS011;5008;50.656;7.188;2022-12-26T16:22:26;2.60;;;1.60;;
9938;SDS011;5008;50.656;7.188;2022-12-26T16:25:11;1.97;;;1.50;;
9938;SDS011;5008;50.656;7.188;2022-12-26T16:27:40;2.03;;;1.53;;
9938;SDS011;5008;50.656;7.188;2022-12-26T16:30:12;1.60;;;1.40;;
9938;SDS011;5008;50.656;7.188;2022-12-26T16:32:41;2.07;;;1.50;;
9938;SDS011;5008;50.656;7.188;2022-12-26T16:35:15;1.43;;;1.33;;
9938;SDS011;5008;50.656;7.188;2022-12-26T16:37:48;2.80;;;1.70;;
9938;SDS011;5008;50.656;7.188;2022-12-26T16:40:19;3.20;;;1.90;;
9938;SDS011;5008;50.656;7.188;2022-12-26T16:42:55;1.90;;;1.60;;
9938;SDS011;5008;50.656;7.188;2022-12-26T16:45:24;3.03;;;1.80;;
9938;SDS011;5008;50.656;7.188;2022-12-26T16:47:52;4.53;;;1.90;;
9938;SDS011;5008;50.656;7.188;2022-12-26T16:50:21;3.10;;;2.30;;
9938;SDS011;5008;50.656;7.188;2022-12-26T16:52:58;1.70;;;1.40;;